M I D A S
Marine Information and Data Acquisition System
Tripno 403 of the Zeeleeuw from 2002-12-03 11:20:06 to 2002-12-03 16:31:27
Back to CruiseResearch ActivitiesStationsMapUnderway DataData graphs

EquipmentUnitsComment
TimeDGPSUTC
LatitudeDGPSDM.mWGS84
LongitudeDGPSDM.mWGS84
TemperatureSBE03/SBE38deg celciusITS90
ConductivitySBE21S/mITS90
SalinitySBE21 Practical Salinity Units
ChlorophylAChelsea fluorimeterg/lCalibrated in Aceton
Missing or incorrect values are displayed as -999
Sea surface data collected by the RV Zeeleeuw from 2002-12-03 11:20:06 to 2002-12-03 16:31:27
                                                                                    Next 1000 lines
Time Latitude Longitude Temperature Conductivity Salinity ChlorophylA
2002-12-03 11:20:13 51°13.885 2°55.593 9.327593 2.797765 25.159318  
2002-12-03 11:20:18 51°13.892 2°55.588 9.332427 2.792294 25.106301  
2002-12-03 11:20:22 51°13.898 2°55.584 9.335128 2.79545 25.139839  
2002-12-03 11:20:28 51°13.906 2°55.578 9.340814 2.800921 25.193442  
2002-12-03 11:20:33 51°13.912 2°55.573 9.343372 2.809864 25.281455  
2002-12-03 11:20:38 51°13.919 2°55.568 9.344178 2.814389 25.325131  
2002-12-03 11:20:42 51°13.925 2°55.564 9.344178 2.814389 25.325131  
2002-12-03 11:20:48 51°13.933 2°55.557 9.34811 2.825436 25.434057  
2002-12-03 11:20:53 51°13.94 2°55.552 9.345315 2.830276 25.480887  
2002-12-03 11:20:58 51°13.948 2°55.547 9.341098 2.84385 25.613777  
2002-12-03 11:21:03 51°13.955 2°55.542 9.343751 2.723701 24.421753  
2002-12-03 11:21:08 51°13.963 2°55.536 9.344367 2.869735 25.866053  
2002-12-03 11:21:13 51°13.971 2°55.531 9.344367 2.869735 25.866053  
2002-12-03 11:21:18 51°13.979 2°55.525 9.343656 2.87889 25.95582  
2002-12-03 11:21:22 51°13.985 2°55.52 9.337355 2.884678 26.011557  
2002-12-03 11:21:28 51°13.996 2°55.513 9.334796 2.881942 25.98496  
2002-12-03 11:21:33 51°14.004 2°55.506 9.330484 2.881731 25.984645  
2002-12-03 11:21:38 51°14.013 2°55.5 9.334512 2.884994 26.01588  
2002-12-03 11:21:42 51°14.02 2°55.495 9.334512 2.884994 26.01588  
2002-12-03 11:21:47 51°14.029 2°55.488 9.339961 2.891623 26.082375  
2002-12-03 11:21:53 51°14.04 2°55.481 9.338255 2.889098 26.056673  
2002-12-03 11:21:58 51°14.049 2°55.474 9.332996 2.885415 26.023028  
2002-12-03 11:22:02 51°14.057 2°55.468 9.324797 2.879416 25.968147  
2002-12-03 11:22:08 51°14.068 2°55.461 9.322143 2.873103 25.906584  
2002-12-03 11:22:13 51°14.078 2°55.454 9.322143 2.873103 25.906584  
2002-12-03 11:22:18 51°14.087 2°55.447 9.323234 2.874365 25.91795  
2002-12-03 11:22:22 51°14.095 2°55.442 9.324892 2.882047 25.994296  
2002-12-03 11:22:27 51°14.105 2°55.435 9.33001 2.871524 25.89031  
2002-12-03 11:22:33 51°14.116 2°55.427 9.338682 2.868999 25.868167  
2002-12-03 11:22:38 51°14.126 2°55.42 9.346973 2.857529 25.756587  
2002-12-03 11:22:42 51°14.133 2°55.414 9.346973 2.857529 25.756587  
2002-12-03 11:22:48 51°14.146 2°55.404 9.3564 2.852478 25.708191  
2002-12-03 11:22:53 51°14.156 2°55.395 9.363599 2.842798 25.613259  
2002-12-03 11:22:58 51°14.167 2°55.386 9.368904 2.850584 25.689971  
2002-12-03 11:23:02 51°14.175 2°55.378 9.371793 2.866263 25.842753  
2002-12-03 11:23:07 51°14.186 2°55.368 9.372929 2.885415 26.028365  
2002-12-03 11:23:13 51°14.2 2°55.354 9.372929 2.885415 26.028365  
2002-12-03 11:23:18 51°14.21 2°55.342 9.370088 2.904357 26.213788  
2002-12-03 11:23:22 51°14.219 2°55.332 9.363884 2.922773 26.391098  
2002-12-03 11:23:28 51°14.231 2°55.316 9.363031 2.939717 26.554418  
2002-12-03 11:23:33 51°14.241 2°55.301 9.359621 2.957924 26.73101  
2002-12-03 11:23:38 51°14.251 2°55.287 9.356116 2.963397 26.783745  
2002-12-03 11:23:43 51°14.261 2°55.271 9.356116 2.963397 26.783745  
2002-12-03 11:23:48 51°14.271 2°55.255 9.347447 2.967186 26.819695  
2002-12-03 11:23:53 51°14.28 2°55.238 9.335839 2.959608 26.74597  
2002-12-03 11:23:58 51°14.289 2°55.222 9.32238 2.953399 26.685292  
2002-12-03 11:24:03 51°14.298 2°55.205 9.32039 2.946979 26.623136  
2002-12-03 11:24:08 51°14.307 2°55.187 9.313944 2.936876 26.526112  
2002-12-03 11:24:13 51°14.316 2°55.169 9.313944 2.936876 26.526112  
2002-12-03 11:24:18 51°14.325 2°55.152 9.312475 2.923194 26.392884  
2002-12-03 11:24:22 51°14.331 2°55.137 9.317167 2.897306 26.140071  
2002-12-03 11:24:28 51°14.342 2°55.116 9.325082 2.870893 25.882857  
2002-12-03 11:24:33 51°14.35 2°55.098 9.333991 2.85574 25.739996  
2002-12-03 11:24:38 51°14.358 2°55.08 9.348299 2.837642 25.565588  
2002-12-03 11:24:42 51°14.365 2°55.065 9.348299 2.837642 25.565588  
2002-12-03 11:24:48 51°14.377 2°55.044 9.367009 2.833433 25.526151  
2002-12-03 11:24:53 51°14.387 2°55.026 9.381311 2.837958 25.572219  
2002-12-03 11:24:58 51°14.398 2°55.01 9.390307 2.844271 25.633724  
2002-12-03 11:25:02 51°14.407 2°54.998 9.403609 2.870472 25.891066  
2002-12-03 11:25:08 51°14.423 2°54.981 9.473152 2.903936 26.218562  
2002-12-03 11:25:13 51°14.436 2°54.968 9.473152 2.903936 26.218562  
2002-12-03 11:25:18 51°14.449 2°54.954 9.460716 2.960345 26.772217  
2002-12-03 11:25:22 51°14.46 2°54.943 9.472916 3.009288 27.249245  
2002-12-03 11:25:28 51°14.475 2°54.926 23.980422 3.046972 27.616152  
2002-12-03 11:25:33 51°14.487 2°54.91 11.695182 3.081184 27.95057  
2002-12-03 11:25:38 51°14.498 2°54.895 10.410155 3.091395 28.034416  
2002-12-03 11:25:42 51°14.507 2°54.881 10.410155 3.091395 28.034416  
2002-12-03 11:25:48 51°14.52 2°54.861 10.219247 3.098448 28.079543  
2002-12-03 11:25:53 51°14.53 2°54.843 10.02867 3.153511 28.619907  
2002-12-03 11:25:58 51°14.541 2°54.825 10.254904 3.210474 29.177685  
2002-12-03 11:26:02 51°14.549 2°54.81 9.970745 3.26639 29.72246  
2002-12-03 11:26:08 51°14.561 2°54.789 10.195917 3.316098 30.192309  
2002-12-03 11:26:12 51°14.57 2°54.775 10.195917 3.316098 30.192309  
2002-12-03 11:26:18 51°14.582 2°54.753 10.179735 3.368865 30.694579  
2002-12-03 11:26:22 51°14.59 2°54.739 10.117076 3.401728 30.996571  
2002-12-03 11:26:28 51°14.603 2°54.717 10.472721 3.446496 31.415312  
2002-12-03 11:26:33 51°14.613 2°54.699 10.256352 3.471673 31.640068  
2002-12-03 11:26:38 51°14.624 2°54.68 10.305155 3.496746 31.867942  
2002-12-03 11:26:42 51°14.632 2°54.665 10.305155 3.496746 31.867942  
2002-12-03 11:26:48 51°14.645 2°54.643 10.708563 3.518448 32.063057  
2002-12-03 11:26:53 51°14.656 2°54.624 10.266723 3.53815 32.242187  
2002-12-03 11:26:58 51°14.667 2°54.604 10.517361 3.55859 32.430199  
2002-12-03 11:27:02 51°14.676 2°54.589 10.276765 3.56881 32.518334  
2002-12-03 11:27:08 51°14.689 2°54.566 10.418731 3.579557 32.61544  
2002-12-03 11:27:13 51°14.7 2°54.546 10.418731 3.579557 32.61544  
2002-12-03 11:27:18 51°14.711 2°54.526 10.559087 3.586827 32.676576  
2002-12-03 11:27:22 51°14.72 2°54.51 10.428796 3.597363 32.766347  
2002-12-03 11:27:28 51°14.733 2°54.486 10.266956 3.606741 32.847293  
2002-12-03 11:27:33 51°14.744 2°54.465 10.555553 3.61085 32.86748  
2002-12-03 11:27:38 51°14.754 2°54.444 10.770659 3.614643 32.885928  
2002-12-03 11:27:43 51°14.764 2°54.423 10.770659 3.614643 32.885928  
2002-12-03 11:27:48 51°14.775 2°54.403 10.70513 3.6236 32.95658  
2002-12-03 11:27:53 51°14.786 2°54.383 10.570201 3.628447 32.980453  
2002-12-03 11:27:58 51°14.797 2°54.362 10.438208 3.631713 32.994984  
2002-12-03 11:28:02 51°14.805 2°54.346 10.442727 3.641302 33.06671  
2002-12-03 11:28:08 51°14.818 2°54.321 10.574478 3.644674 33.077818  
2002-12-03 11:28:13 51°14.829 2°54.3 10.574478 3.644674 33.077818  
2002-12-03 11:28:18 51°14.839 2°54.279 10.542437 3.643725 33.051978  
2002-12-03 11:28:22 51°14.847 2°54.262 10.62755 3.654262 33.139805  
2002-12-03 11:28:28 51°14.859 2°54.237 10.5536 3.652787 33.110864  
2002-12-03 11:28:33 51°14.869 2°54.215 10.562575 3.662166 33.192114  
2002-12-03 11:28:38 51°14.879 2°54.193 10.569457 3.667118 33.227228  
2002-12-03 11:28:42 51°14.886 2°54.176 10.569457 3.667118 33.227228  
2002-12-03 11:28:48 51°14.898 2°54.15 10.340345 3.671649 33.263267  
2002-12-03 11:28:53 51°14.907 2°54.127 10.496511 3.674495 33.278589  
2002-12-03 11:28:58 51°14.917 2°54.105 10.421061 3.675127 33.279025  
2002-12-03 11:29:02 51°14.925 2°54.087 10.835661 3.679342 33.315561  
2002-12-03 11:29:07 51°14.934 2°54.066 10.5309 3.68282 33.343173  
2002-12-03 11:29:13 51°14.946 2°54.039 10.5309 3.68282 33.343173  
2002-12-03 11:29:18 51°14.956 2°54.017 10.673478 3.682398 33.332241  
2002-12-03 11:29:22 51°14.964 2°53.999 10.631267 3.685138 33.355384  
2002-12-03 11:29:28 51°14.975 2°53.972 10.544298 3.682819 33.329805  
2002-12-03 11:29:33 51°14.984 2°53.949 10.689306 3.686508 33.363982  
2002-12-03 11:29:38 51°14.993 2°53.926 10.642414 3.682292 33.323756  
2002-12-03 11:29:42 51°14.999 2°53.907 10.642414 3.682292 33.323756  
2002-12-03 11:29:48 51°15.009 2°53.878 10.708795 3.686192 33.365257  
2002-12-03 11:29:53 51°15.018 2°53.854 10.319111 3.681766 33.322903  
2002-12-03 11:29:58 51°15.026 2°53.829 10.538344 3.685138 33.362816  
2002-12-03 11:30:03 51°15.036 2°53.805 10.417705 3.683663 33.356127  
2002-12-03 11:30:08 51°15.045 2°53.781 10.485758 3.68282 33.352835  
2002-12-03 11:30:13 51°15.054 2°53.756 10.485758 3.68282 33.352835  
2002-12-03 11:30:18 51°15.063 2°53.732 10.559785 3.680396 33.337326  
2002-12-03 11:30:22 51°15.07 2°53.712 10.403397 3.677867 33.317776  
2002-12-03 11:30:28 51°15.08 2°53.683 10.287599 3.676286 33.310756  
2002-12-03 11:30:33 51°15.089 2°53.659 10.399388 3.675127 33.305755  
2002-12-03 11:30:38 51°15.097 2°53.634 10.398222 3.673546 33.29353  
2002-12-03 11:30:42 51°15.104 2°53.615 10.398222 3.673546 33.29353  
2002-12-03 11:30:48 51°15.115 2°53.586 10.28391 3.672177 33.287886  
2002-12-03 11:30:53 51°15.125 2°53.562 10.513871 3.671544 33.286709  
2002-12-03 11:30:58 51°15.135 2°53.537 10.402185 3.670174 33.275861  
2002-12-03 11:31:03 51°15.144 2°53.512 10.366188 3.669542 33.272454  
2002-12-03 11:31:08 51°15.152 2°53.487 10.446034 3.668805 33.266497  
2002-12-03 11:31:13 51°15.16 2°53.463 10.446034 3.668805 33.266497  
2002-12-03 11:31:18 51°15.167 2°53.438 10.599718 3.667962 33.259477  
2002-12-03 11:31:22 51°15.174 2°53.418 10.603064 3.668699 33.26692  
2002-12-03 11:31:28 51°15.183 2°53.387 10.569968 3.668699 33.26692  
2002-12-03 11:31:33 51°15.192 2°53.362 10.574989 3.667751 33.257351  
2002-12-03 11:31:38 51°15.199 2°53.337 10.426932 3.671544 33.291912  
2002-12-03 11:31:42 51°15.205 2°53.316 10.426932 3.671544 33.291912  
2002-12-03 11:31:48 51°15.214 2°53.285 10.584519 3.672493 33.300738  
2002-12-03 11:31:53 51°15.221 2°53.26 10.473373 3.673125 33.304887  
2002-12-03 11:31:58 51°15.228 2°53.234 10.590283 3.673336 33.304039  
2002-12-03 11:32:03 51°15.235 2°53.208 10.402045 3.677973 33.347845  
2002-12-03 11:32:08 51°15.241 2°53.183 10.441702 3.683136 33.395478  
2002-12-03 11:32:12 51°15.246 2°53.162 10.441702 3.683136 33.395478  
2002-12-03 11:32:18 51°15.254 2°53.132 10.481335 3.689459 33.455557  
2002-12-03 11:32:23 51°15.26 2°53.106 10.558994 3.692832 33.486604  
2002-12-03 11:32:28 51°15.267 2°53.081 10.67501 3.695361 33.509889  
2002-12-03 11:32:33 51°15.272 2°53.055 10.410202 3.698417 33.536248  
2002-12-03 11:32:38 51°15.278 2°53.029 10.564714 3.703581 33.584627  
2002-12-03 11:32:42 51°15.282 2°53.008 10.564714 3.703581 33.584627  
2002-12-03 11:32:48 51°15.288 2°52.977 10.565318 3.708639 33.634946  
2002-12-03 11:32:53 51°15.292 2°52.951 10.567085 3.708955 33.636637  
2002-12-03 11:32:58 51°15.298 2°52.925 10.489482 3.712855 33.675257  
2002-12-03 11:33:02 51°15.301 2°52.905 10.261818 3.7157 33.700984  
2002-12-03 11:33:08 51°15.307 2°52.874 10.415282 3.716543 33.707994  
2002-12-03 11:33:13 51°15.312 2°52.847 10.415282 3.716543 33.707994  
2002-12-03 11:33:17 51°15.316 2°52.826 10.415795 3.718546 33.72671  
2002-12-03 11:33:22 51°15.321 2°52.801 10.30156 3.720548 33.746931  
2002-12-03 11:33:28 51°15.327 2°52.77 10.302914 3.72255 33.764895  
2002-12-03 11:33:33 51°15.333 2°52.744 10.381904 3.723604 33.775539  
2002-12-03 11:33:38 51°15.339 2°52.719 10.308142 3.724658 33.78543  
2002-12-03 11:33:42 51°15.343 2°52.698 10.308142 3.724658 33.78543  
2002-12-03 11:33:48 51°15.349 2°52.667 10.501491 3.726239 33.800643  
2002-12-03 11:33:53 51°15.354 2°52.641 10.542716 3.726977 33.808095  
2002-12-03 11:33:58 51°15.359 2°52.615 10.62258 3.720864 33.744856  
2002-12-03 11:34:02 51°15.363 2°52.595 10.4349 3.727925 33.815413  
2002-12-03 11:34:08 51°15.369 2°52.563 10.438208 3.727925 33.813151  
2002-12-03 11:34:13 51°15.374 2°52.537 10.438208 3.727925 33.813151  
2002-12-03 11:34:18 51°15.378 2°52.512 10.366935 3.728874 33.821977  
2002-12-03 11:34:22 51°15.382 2°52.491 10.560715 3.728874 33.81896  
2002-12-03 11:34:28 51°15.388 2°52.46 10.755964 3.728452 33.810934  
2002-12-03 11:34:33 51°15.392 2°52.433 10.610546 3.729401 33.816742  
2002-12-03 11:34:38 51°15.396 2°52.407 10.463314 3.729506 33.814037  
2002-12-03 11:34:42 51°15.398 2°52.386 10.463314 3.729506 33.814037  
2002-12-03 11:34:48 51°15.402 2°52.355 10.622394 3.729717 33.813151  
2002-12-03 11:34:53 51°15.405 2°52.328 10.401672 3.730244 33.81621  
2002-12-03 11:34:58 51°15.407 2°52.301 10.563319 3.730876 33.818071  
2002-12-03 11:35:02 51°15.41 2°52.28 10.64743 3.731087 33.818692  
2002-12-03 11:35:08 51°15.413 2°52.248 10.58187 3.726976 33.770439  
2002-12-03 11:35:12 51°15.415 2°52.227 10.58187 3.726976 33.770439  
2002-12-03 11:35:18 51°15.418 2°52.195 10.668 3.732035 33.818471  
2002-12-03 11:35:22 51°15.419 2°52.174 10.604551 3.731824 33.811072  
2002-12-03 11:35:28 51°15.421 2°52.142 10.421434 3.733827 33.823743  
2002-12-03 11:35:33 51°15.422 2°52.116 10.35658 3.732456 33.801645  
2002-12-03 11:35:38 51°15.423 2°52.089 10.512754 3.735302 33.825826  
2002-12-03 11:35:42 51°15.424 2°52.068 10.512754 3.735302 33.825826  
2002-12-03 11:35:48 51°15.426 2°52.036 10.518385 3.722655 33.689329  
2002-12-03 11:35:53 51°15.427 2°52.009 10.524526 3.729716 33.747726  
2002-12-03 11:35:58 51°15.427 2°51.982 10.797909 3.735512 33.800873  
2002-12-03 11:36:02 51°15.427 2°51.961 10.647848 3.739306 33.830832  
2002-12-03 11:36:08 51°15.427 2°51.929 10.53746 3.740255 33.829861  
2002-12-03 11:36:13 51°15.427 2°51.903 10.53746 3.740255 33.829861  
2002-12-03 11:36:18 51°15.427 2°51.876 10.693065 3.740992 33.832782  
2002-12-03 11:36:22 51°15.426 2°51.855 10.620442 3.741835 33.834508  
2002-12-03 11:36:28 51°15.426 2°51.824 10.584473 3.742152 33.830929  
2002-12-03 11:36:33 51°15.426 2°51.797 10.66345 3.73646 33.767639  
2002-12-03 11:36:38 51°15.425 2°51.771 10.58861 3.739095 33.791155  
2002-12-03 11:36:42 51°15.425 2°51.749 10.58861 3.739095 33.791155  
2002-12-03 11:36:48 51°15.424 2°51.718 10.591538 3.73235 33.71954  
2002-12-03 11:36:52 51°15.424 2°51.697 10.4791 3.733088 33.722471  
2002-12-03 11:36:58 51°15.422 2°51.665 10.632799 3.731507 33.703578  
2002-12-03 11:37:03 51°15.422 2°51.637 10.710883 3.741624 33.803104  
2002-12-03 11:37:08 51°15.421 2°51.609 10.485897 3.74447 33.827982  
2002-12-03 11:37:13 51°15.42 2°51.581 10.485897 3.74447 33.827982  
2002-12-03 11:37:18 51°15.419 2°51.554 10.640835 3.746051 33.842386  
2002-12-03 11:37:22 51°15.418 2°51.532 10.681508 3.745945 33.838323  
2002-12-03 11:37:28 51°15.417 2°51.5 10.568527 3.745945 33.836821  
2002-12-03 11:37:33 51°15.415 2°51.474 10.41887 3.743416 33.809877  
2002-12-03 11:37:38 51°15.414 2°51.447 10.6118 3.746051 33.834129  
2002-12-03 11:37:42 51°15.411 2°51.426 10.6118 3.746051 33.834129  
2002-12-03 11:37:48 51°15.409 2°51.395 10.806249 3.747315 33.844598  
2002-12-03 11:37:53 51°15.406 2°51.369 10.617515 3.74721 33.841287  
2002-12-03 11:37:58 51°15.404 2°51.342 10.620024 3.747631 33.843275  
2002-12-03 11:38:02 51°15.403 2°51.321 10.62258 3.747631 33.841024  
2002-12-03 11:38:08 51°15.4 2°51.29 10.927748 3.748369 33.846942  
2002-12-03 11:38:13 51°15.398 2°51.263 10.927748 3.748369 33.846942  
2002-12-03 11:38:18 51°15.395 2°51.237 10.5894 3.749423 33.854539  
2002-12-03 11:38:22 51°15.393 2°51.216 10.743676 3.749845 33.856526  
2002-12-03 11:38:28 51°15.389 2°51.185 10.670182 3.750477 33.859882  
2002-12-03 11:38:33 51°15.385 2°51.159 10.556902 3.750793 33.86081  
2002-12-03 11:38:38 51°15.381 2°51.133 11.014072 3.751004 33.859177  
2002-12-03 11:38:42 51°15.377 2°51.113 11.014072 3.751004 33.859177  
2002-12-03 11:38:48 51°15.372 2°51.082 10.675334 3.751847 33.867653  
2002-12-03 11:38:53 51°15.367 2°51.056 10.638977 3.745418 33.800779  
2002-12-03 11:38:58 51°15.362 2°51.03 10.677934 3.752585 33.869816  
2002-12-03 11:39:02 51°15.358 2°51.01 10.869086 3.752163 33.863327  
2002-12-03 11:39:08 51°15.352 2°50.978 10.567597 3.75269 33.867874  
2002-12-03 11:39:13 51°15.346 2°50.953 10.567597 3.75269 33.867874  
2002-12-03 11:39:18 51°15.34 2°50.927 10.683458 3.747104 33.809486  
2002-12-03 11:39:22 51°15.336 2°50.906 10.647012 3.754271 33.878511  
2002-12-03 11:39:28 51°15.331 2°50.876 10.496232 3.753744 33.873214  
2002-12-03 11:39:33 51°15.326 2°50.85 10.687913 3.754271 33.875509  
2002-12-03 11:39:38 51°15.321 2°50.824 10.652259 3.754903 33.881113  
2002-12-03 11:39:42 51°15.318 2°50.803 10.652259 3.754903 33.881113  
2002-12-03 11:39:48 51°15.312 2°50.772 10.57922 3.754798 33.879304  
2002-12-03 11:39:53 51°15.306 2°50.747 10.61942 3.75543 33.882657  
2002-12-03 11:39:58 51°15.3 2°50.721 10.698494 3.753955 33.86633  
2002-12-03 11:40:02 51°15.296 2°50.7 10.551972 3.756589 33.891305  
2002-12-03 11:40:08 51°15.291 2°50.669 10.707867 3.756062 33.884509  
2002-12-03 11:40:13 51°15.288 2°50.643 10.707867 3.756062 33.884509  
2002-12-03 11:40:18 51°15.284 2°50.617 10.558901 3.757222 33.893906  
2002-12-03 11:40:22 51°15.28 2°50.596 10.751745 3.757222 33.893156  
2002-12-03 11:40:28 51°15.275 2°50.565 10.753321 3.758486 33.903612  
2002-12-03 11:40:33 51°15.269 2°50.539 10.608222 3.758381 33.89955  
2002-12-03 11:40:38 51°15.263 2°50.513 10.651656 3.759856 33.90987  
2002-12-03 11:40:42 51°15.258 2°50.492 10.651656 3.759856 33.90987  
2002-12-03 11:40:48 51°15.252 2°50.462 10.923956 3.760805 33.915646  
2002-12-03 11:40:53 51°15.248 2°50.436 10.704109 3.761754 33.923673  
2002-12-03 11:40:58 51°15.244 2°50.41 10.674081 3.76207 33.923095  
2002-12-03 11:41:02 51°15.241 2°50.39 10.834225 3.763018 33.93037  
2002-12-03 11:41:08 51°15.238 2°50.359 10.614542 3.764599 33.942494  
2002-12-03 11:41:13 51°15.235 2°50.334 10.614542 3.764599 33.942494  
2002-12-03 11:41:18 51°15.231 2°50.308 10.848301 3.765758 33.948129  
2002-12-03 11:41:22 51°15.226 2°50.287 10.895416 3.767128 33.95663  
2002-12-03 11:41:28 51°15.22 2°50.256 10.86418 3.768604 33.964686  
2002-12-03 11:41:33 51°15.215 2°50.231 10.831863 3.77029 33.973353  
2002-12-03 11:41:38 51°15.21 2°50.205 10.759116 3.771871 33.983965  
2002-12-03 11:41:42 51°15.207 2°50.184 10.759116 3.771871 33.983965  
2002-12-03 11:41:48 51°15.201 2°50.154 10.649427 3.773452 33.99232  
2002-12-03 11:41:53 51°15.196 2°50.128 10.650959 3.774611 33.997945  
2002-12-03 11:41:58 51°15.192 2°50.102 10.921875 3.775876 34.003875  
2002-12-03 11:42:02 51°15.187 2°50.082 10.733659 3.777457 34.012975  
2002-12-03 11:42:08 51°15.181 2°50.051 10.700582 3.778722 34.020404  
2002-12-03 11:42:13 51°15.177 2°50.025 10.700582 3.778722 34.020404  
2002-12-03 11:42:18 51°15.172 2°49.999 10.665585 3.779881 34.027525  
2002-12-03 11:42:22 51°15.168 2°49.979 10.896249 3.780513 34.028609  
2002-12-03 11:42:28 51°15.163 2°49.948 10.898053 3.781251 34.034506  
2002-12-03 11:42:33 51°15.158 2°49.922 10.710651 3.781778 34.035283  
2002-12-03 11:42:38 51°15.153 2°49.896 10.863161 3.782621 34.039982  
2002-12-03 11:42:42 51°15.15 2°49.876 10.863161 3.782621 34.039982  
2002-12-03 11:42:48 51°15.144 2°49.845 10.676216 3.783043 34.041955  
2002-12-03 11:42:53 51°15.141 2°49.819 10.713806 3.783675 34.045291  
2002-12-03 11:42:58 51°15.138 2°49.793 10.905455 3.784096 34.045762  
2002-12-03 11:43:02 51°15.134 2°49.773 10.791052 3.784518 34.046983  
2002-12-03 11:43:08 51°15.129 2°49.743 10.792951 3.78515 34.052571  
2002-12-03 11:43:13 51°15.125 2°49.717 10.792951 3.78515 34.052571  
2002-12-03 11:43:18 51°15.121 2°49.69 11.060791 3.785572 34.055295  
2002-12-03 11:43:22 51°15.118 2°49.669 10.757494 3.785783 34.055905  
2002-12-03 11:43:28 51°15.113 2°49.638 10.682529 3.786099 34.057572  
2002-12-03 11:43:33 51°15.109 2°49.612 10.835429 3.785994 34.055765  
2002-12-03 11:43:38 51°15.105 2°49.586 10.609105 3.785256 34.04762  
2002-12-03 11:43:42 51°15.102 2°49.565 10.609105 3.785256 34.04762  
2002-12-03 11:43:48 51°15.097 2°49.534 10.875658 3.786204 34.054874  
2002-12-03 11:43:53 51°15.093 2°49.508 10.839087 3.786521 34.057291  
2002-12-03 11:43:58 51°15.089 2°49.481 10.802404 3.78631 34.053677  
2002-12-03 11:44:02 51°15.085 2°49.46 10.879221 3.78631 34.052175  
2002-12-03 11:44:08 51°15.08 2°49.429 10.61417 3.786626 34.055344  
2002-12-03 11:44:13 51°15.076 2°49.403 10.61417 3.786626 34.055344  
2002-12-03 11:44:17 51°15.072 2°49.382 10.615564 3.787047 34.058818  
2002-12-03 11:44:23 51°15.067 2°49.351 10.76811 3.787258 34.058677  
2002-12-03 11:44:28 51°15.063 2°49.325 10.807546 3.787574 34.061094  
2002-12-03 11:44:33 51°15.059 2°49.299 10.770706 3.78768 34.0614  
2002-12-03 11:44:38 51°15.054 2°49.272 10.772096 3.787469 34.057035  
2002-12-03 11:44:42 51°15.051 2°49.251 10.772096 3.787469 34.057035  
2002-12-03 11:44:48 51°15.046 2°49.22 10.925019 3.787469 34.057786  
2002-12-03 11:44:53 51°15.042 2°49.194 10.736535 3.787996 34.063066  
2002-12-03 11:44:58 51°15.038 2°49.167 10.775851 3.787891 34.060508  
2002-12-03 11:45:02 51°15.035 2°49.146 10.625413 3.787996 34.060063  
2002-12-03 11:45:08 51°15.032 2°49.113 10.664564 3.788101 34.061119  
2002-12-03 11:45:13 51°15.03 2°49.086 10.664564 3.788101 34.061119  
2002-12-03 11:45:18 51°15.028 2°49.059 10.780949 3.788418 34.061283  
2002-12-03 11:45:23 51°15.027 2°49.031 10.859458 3.788312 34.059477  
2002-12-03 11:45:28 51°15.026 2°49.005 10.67111 3.788207 34.05692  
2002-12-03 11:45:33 51°15.025 2°48.977 10.749194 3.788523 34.057836  
2002-12-03 11:45:38 51°15.024 2°48.95 10.752811 3.78515 34.024055  
2002-12-03 11:45:42 51°15.023 2°48.928 10.752811 3.78515 34.024055  
2002-12-03 11:45:48 51°15.022 2°48.895 10.831122 3.788628 34.05664  
2002-12-03 11:45:53 51°15.021 2°48.867 10.832373 3.788839 34.05725  
2002-12-03 11:45:58 51°15.02 2°48.84 10.873251 3.788944 34.056805  
2002-12-03 11:46:02 51°15.02 2°48.818 10.801014 3.789366 34.058776  
2002-12-03 11:46:08 51°15.019 2°48.785 10.803747 3.789366 34.055775  
2002-12-03 11:46:13 51°15.019 2°48.758 10.803747 3.789366 34.055775  
2002-12-03 11:46:18 51°15.018 2°48.731 10.767832 3.788839 34.048998  
2002-12-03 11:46:22 51°15.018 2°48.709 10.617562 3.786415 34.022478  
2002-12-03 11:46:28 51°15.017 2°48.676 10.923863 3.78652 34.023533  
2002-12-03 11:46:33 51°15.016 2°48.649 10.65941 3.78789 34.032753  
2002-12-03 11:46:38 51°15.015 2°48.621 10.926314 3.787996 34.030061  
2002-12-03 11:46:42 51°15.014 2°48.6 10.926314 3.787996 34.030061  
2002-12-03 11:46:48 51°15.012 2°48.567 10.661221 3.788312 34.031728  
2002-12-03 11:46:53 51°15.01 2°48.54 10.73672 3.788206 34.029174  
2002-12-03 11:46:58 51°15.006 2°48.513 10.812966 3.788628 34.029647  
2002-12-03 11:47:02 51°15.002 2°48.491 10.698401 3.788628 34.030397  
2002-12-03 11:47:08 51°14.998 2°48.459 10.735097 3.78926 34.032979  
2002-12-03 11:47:13 51°14.996 2°48.433 10.735097 3.78926 34.032979  
2002-12-03 11:47:18 51°14.994 2°48.406 10.770984 3.789787 34.036005  
2002-12-03 11:47:22 51°14.992 2°48.385 10.807129 3.789576 34.034645  
2002-12-03 11:47:28 51°14.988 2°48.353 10.804813 3.790525 34.045637  
2002-12-03 11:47:33 51°14.985 2°48.326 10.80333 3.789682 34.037198  
2002-12-03 11:47:38 51°14.982 2°48.299 10.95276 3.790525 34.045637  
2002-12-03 11:47:42 51°14.98 2°48.278 10.95276 3.790525 34.045637  
2002-12-03 11:47:48 51°14.976 2°48.246 10.950495 3.792633 34.068233  
2002-12-03 11:47:53 51°14.974 2°48.219 10.871308 3.79063 34.047441  
2002-12-03 11:47:58 51°14.971 2°48.192 10.94393 3.792106 34.064459  
2002-12-03 11:48:02 51°14.969 2°48.171 10.751745 3.791158 34.057213  
2002-12-03 11:48:08 51°14.966 2°48.139 10.825519 3.792422 34.070624  
2002-12-03 11:48:13 51°14.964 2°48.112 10.825519 3.792422 34.070624  
2002-12-03 11:48:18 51°14.961 2°48.086 10.745763 3.79179 34.066544  
2002-12-03 11:48:22 51°14.958 2°48.065 10.666653 3.792106 34.070459  
2002-12-03 11:48:28 51°14.954 2°48.033 10.817135 3.794636 34.099539  
2002-12-03 11:48:33 51°14.951 2°48.007 10.777566 3.791895 34.074351  
2002-12-03 11:48:38 51°14.947 2°47.981 10.775712 3.792633 34.08324  
2002-12-03 11:48:42 51°14.944 2°47.96 10.775712 3.792633 34.08324  
2002-12-03 11:48:48 51°14.939 2°47.929 10.887366 3.792212 34.083523  
2002-12-03 11:48:53 51°14.936 2°47.903 10.734587 3.793055 34.092718  
2002-12-03 11:48:58 51°14.932 2°47.877 10.810511 3.792106 34.086222  
2002-12-03 11:49:02 51°14.929 2°47.856 10.733195 3.792317 34.091337  
2002-12-03 11:49:07 51°14.925 2°47.829 10.771308 3.793898 34.109429  
2002-12-03 11:49:13 51°14.921 2°47.798 10.771308 3.793898 34.109429  
2002-12-03 11:49:18 51°14.917 2°47.772 10.847144 3.793055 34.100982  
2002-12-03 11:49:22 51°14.914 2°47.751 11.074496 3.792528 34.096454  
2002-12-03 11:49:28 51°14.91 2°47.72 10.772606 3.793898 34.113187  
2002-12-03 11:49:33 51°14.906 2°47.694 11.001093 3.793371 34.107907  
2002-12-03 11:49:38 51°14.902 2°47.667 10.775156 3.792739 34.102323  
2002-12-03 11:49:42 51°14.9 2°47.646 10.775156 3.792739 34.102323  
2002-12-03 11:49:48 51°14.896 2°47.615 10.700722 3.794215 34.117107  
2002-12-03 11:49:53 51°14.892 2°47.589 10.740337 3.793582 34.110771  
2002-12-03 11:49:58 51°14.888 2°47.563 10.704758 3.793266 34.1061  
2002-12-03 11:50:02 51°14.885 2°47.542 10.782478 3.794109 34.114547  
2002-12-03 11:50:08 51°14.88 2°47.511 10.63345 3.794109 34.113796  
2002-12-03 11:50:12 51°14.878 2°47.49 10.63345 3.794109 34.113796  
2002-12-03 11:50:18 51°14.873 2°47.458 10.674406 3.795163 34.123604  
2002-12-03 11:50:22 51°14.87 2°47.437 10.828992 3.794847 34.119684  
2002-12-03 11:50:28 51°14.866 2°47.406 10.792581 3.79569 34.126628  
2002-12-03 11:50:34 51°14.862 2°47.375 10.64325 3.795479 34.123764  
2002-12-03 11:50:38 51°14.859 2°47.354 10.606828 3.795058 34.115782  
2002-12-03 11:50:42 51°14.856 2°47.333 10.606828 3.795058 34.115782  
2002-12-03 11:50:48 51°14.852 2°47.301 10.79879 3.797482 34.139314  
2002-12-03 11:50:53 51°14.848 2°47.275 10.76264 3.79569 34.117607  
2002-12-03 11:50:58 51°14.844 2°47.249 10.877926 3.796217 34.122885  
2002-12-03 11:51:02 51°14.841 2°47.228 10.65082 3.796322 34.121686  
2002-12-03 11:51:08 51°14.836 2°47.197 10.993841 3.797482 34.129539  
2002-12-03 11:51:13 51°14.832 2°47.171 10.993841 3.797482 34.129539  
2002-12-03 11:51:18 51°14.829 2°47.145 10.918915 3.79822 34.136177  
2002-12-03 11:51:22 51°14.826 2°47.123 11.070851 3.797798 34.130451  
2002-12-03 11:51:28 51°14.822 2°47.092 10.806851 3.798219 34.132418  
2002-12-03 11:51:32 51°14.818 2°47.071 10.693854 3.79706 34.120057  
2002-12-03 11:51:38 51°14.814 2°47.04 10.84594 3.797692 34.124887  
2002-12-03 11:51:43 51°14.811 2°47.013 10.84594 3.797692 34.124887  
2002-12-03 11:51:48 51°14.807 2°46.987 10.732268 3.798009 34.12655  
2002-12-03 11:51:53 51°14.804 2°46.961 11.035773 3.799273 34.138463  
2002-12-03 11:51:58 51°14.8 2°46.934 10.694503 3.797798 34.121434  
2002-12-03 11:52:02 51°14.797 2°46.913 10.922152 3.798325 34.12671  
2002-12-03 11:52:08 51°14.792 2°46.881 10.770242 3.799379 34.137263  
2002-12-03 11:52:13 51°14.789 2°46.854 10.770242 3.799379 34.137263  
2002-12-03 11:52:18 51°14.785 2°46.827 10.694503 3.798746 34.129429  
2002-12-03 11:52:23 51°14.782 2°46.8 10.959971 3.7998 34.139981  
2002-12-03 11:52:28 51°14.778 2°46.773 10.884404 3.798957 34.131539  
2002-12-03 11:52:33 51°14.774 2°46.746 10.732778 3.7998 34.139229  
2002-12-03 11:52:38 51°14.77 2°46.719 10.733566 3.798536 34.127318  
2002-12-03 11:52:42 51°14.767 2°46.697 10.733566 3.798536 34.127318  
2002-12-03 11:52:48 51°14.763 2°46.665 10.771262 3.800011 34.14134  
2002-12-03 11:52:53 51°14.758 2°46.637 10.7325 3.799168 34.132898  
2002-12-03 11:52:58 51°14.754 2°46.61 10.884265 3.800538 34.146616  
2002-12-03 11:53:02 51°14.751 2°46.589 10.732546 3.800117 34.141644  
2002-12-03 11:53:08 51°14.747 2°46.556 10.84682 3.798009 34.12054  
2002-12-03 11:53:13 51°14.743 2°46.528 10.84682 3.798009 34.12054  
2002-12-03 11:53:18 51°14.739 2°46.501 10.77052 3.800117 34.141644  
2002-12-03 11:53:22 51°14.736 2°46.479 10.808473 3.798114 34.123097  
2002-12-03 11:53:28 51°14.732 2°46.446 10.846264 3.800222 34.142699  
2002-12-03 11:53:33 51°14.727 2°46.419 10.732129 3.799695 34.138174  
2002-12-03 11:53:38 51°14.724 2°46.392 10.7325 3.798957 34.130788  
2002-12-03 11:53:42 51°14.721 2°46.37 10.7325 3.798957 34.130788  
2002-12-03 11:53:48 51°14.717 2°46.337 10.997629 3.798641 34.126871  
2002-12-03 11:53:53 51°14.713 2°46.31 10.732361 3.800433 34.144058  
2002-12-03 11:53:58 51°14.709 2°46.282 10.770057 3.7998 34.138478  
2002-12-03 11:54:02 51°14.706 2°46.26 10.883617 3.799906 34.139533  
2002-12-03 11:54:08 51°14.701 2°46.227 10.8075 3.799906 34.139533  
2002-12-03 11:54:13 51°14.698 2°46.2 10.8075 3.799906 34.139533  
2002-12-03 11:54:18 51°14.694 2°46.173 10.958815 3.7998 34.137726  
2002-12-03 11:54:22 51°14.691 2°46.151 10.731201 3.800222 34.142699  
2002-12-03 11:54:28 51°14.686 2°46.118 11.072327 3.787679 34.017159  
2002-12-03 11:54:33 51°14.682 2°46.091 10.844921 3.800327 34.143003  
2002-12-03 11:54:38 51°14.678 2°46.063 11.033188 3.79959 34.136368  
2002-12-03 11:54:42 51°14.676 2°46.041 11.033188 3.79959 34.136368  
2002-12-03 11:54:48 51°14.671 2°46.008 10.88209 3.799484 34.134561  
2002-12-03 11:54:53 51°14.667 2°45.981 10.768017 3.800222 34.141196  
2002-12-03 11:54:58 51°14.663 2°45.953 10.767832 3.79959 34.137119  
2002-12-03 11:55:02 51°14.661 2°45.931 10.805415 3.798957 34.130788  
2002-12-03 11:55:08 51°14.655 2°45.898 10.805183 3.799906 34.140285  
2002-12-03 11:55:13 51°14.652 2°45.87 10.805183 3.799906 34.140285  
2002-12-03 11:55:18 51°14.648 2°45.843 10.880517 3.799695 34.137423  
2002-12-03 11:55:22 51°14.645 2°45.82 10.917758 3.799906 34.138782  
2002-12-03 11:55:28 51°14.64 2°45.787 10.803933 3.799168 34.132147  
2002-12-03 11:55:33 51°14.637 2°45.759 10.879036 3.798852 34.127479  
2002-12-03 11:55:38 51°14.633 2°45.732 10.765329 3.7998 34.139229  
2002-12-03 11:55:42 51°14.63 2°45.709 10.765329 3.7998 34.139229  
2002-12-03 11:55:48 51°14.625 2°45.676 10.840754 3.799063 34.131843  
2002-12-03 11:55:53 51°14.622 2°45.649 10.689445 3.79959 34.137119  
2002-12-03 11:55:58 51°14.618 2°45.621 10.802821 3.7998 34.139981  
2002-12-03 11:56:02 51°14.616 2°45.599 10.726145 3.799379 34.137263  
2002-12-03 11:56:08 51°14.612 2°45.565 10.877602 3.799484 34.13907  
2002-12-03 11:56:13 51°14.609 2°45.537 10.877602 3.799484 34.13907  
2002-12-03 11:56:18 51°14.606 2°45.508 10.725078 3.79959 34.140125  
2002-12-03 11:56:22 51°14.604 2°45.486 10.649102 3.799273 34.136208  
2002-12-03 11:56:28 51°14.6 2°45.452 10.800736 3.799379 34.138015  
2002-12-03 11:56:33 51°14.597 2°45.424 10.800041 3.799168 34.136656  
2002-12-03 11:56:38 51°14.594 2°45.396 10.723826 3.796955 34.113743  
2002-12-03 11:56:42 51°14.591 2°45.374 10.723826 3.796955 34.113743  
2002-12-03 11:56:48 51°14.588 2°45.34 10.761759 3.799484 34.140573  
2002-12-03 11:56:53 51°14.585 2°45.312 10.79879 3.799063 34.1356  
2002-12-03 11:56:58 51°14.582 2°45.284 10.721646 3.799273 34.138463  
2002-12-03 11:57:02 51°14.58 2°45.262 10.759348 3.798852 34.134993  
2002-12-03 11:57:08 51°14.576 2°45.228 10.683225 3.799484 34.141325  
2002-12-03 11:57:13 51°14.572 2°45.201 10.683225 3.799484 34.141325  
2002-12-03 11:57:18 51°14.569 2°45.173 10.682019 3.798746 34.134689  
2002-12-03 11:57:22 51°14.567 2°45.15 10.719929 3.798746 34.134689  
2002-12-03 11:57:28 51°14.563 2°45.117 10.794527 3.799063 34.138607  
2002-12-03 11:57:33 51°14.559 2°45.09 10.718027 3.798957 34.138303  
2002-12-03 11:57:38 51°14.557 2°45.062 10.717749 3.796638 34.115084  
2002-12-03 11:57:43 51°14.553 2°45.035 10.717749 3.796638 34.115084  
2002-12-03 11:57:48 51°14.55 2°45.007 10.792859 3.798746 34.136192  
2002-12-03 11:57:53 51°14.547 2°44.979 10.716914 3.796638 34.115835  
2002-12-03 11:57:58 51°14.544 2°44.952 10.793137 3.798536 34.137088  
2002-12-03 11:58:02 51°14.542 2°44.93 10.866124 3.796533 34.117034  
2002-12-03 11:58:08 51°14.538 2°44.896 10.789337 3.798641 34.138895  
2002-12-03 11:58:13 51°14.535 2°44.869 10.789337 3.798641 34.138895  
2002-12-03 11:58:18 51°14.532 2°44.841 10.675706 3.797376 34.126229  
2002-12-03 11:58:22 51°14.53 2°44.819 10.751745 3.798641 34.138895  
2002-12-03 11:58:28 51°14.526 2°44.786 10.863624 3.79843 34.136033  
2002-12-03 11:58:33 51°14.523 2°44.759 10.8633 3.798641 34.141151  
2002-12-03 11:58:38 51°14.52 2°44.731 10.672642 3.79843 34.139792  
2002-12-03 11:58:42 51°14.518 2°44.709 10.672642 3.79843 34.139792  
2002-12-03 11:58:48 51°14.514 2°44.676 10.89884 3.797903 34.133762  
2002-12-03 11:58:53 51°14.511 2°44.649 10.709306 3.79822 34.136177  
2002-12-03 11:58:58 51°14.508 2°44.621 10.594652 3.79822 34.138432  
2002-12-03 11:59:02 51°14.505 2°44.6 10.747015 3.79822 34.139184  
2002-12-03 11:59:08 51°14.502 2°44.567 10.823388 3.797903 34.136769  
2002-12-03 11:59:13 51°14.499 2°44.539 10.823388 3.797903 34.136769  
2002-12-03 11:59:18 51°14.496 2°44.512 10.785908 3.798114 34.139632  
2002-12-03 11:59:22 51°14.493 2°44.49 10.786649 3.797798 34.136465  
2002-12-03 11:59:28 51°14.489 2°44.457 10.750678 3.796006 34.121525  
2002-12-03 11:59:33 51°14.486 2°44.43 10.713899 3.797166 34.132387  
2002-12-03 11:59:38 51°14.484 2°44.403 10.829548 3.797166 34.133139  
2002-12-03 11:59:42 51°14.481 2°44.381 10.829548 3.797166 34.133139  
2002-12-03 11:59:48 51°14.478 2°44.348 10.717471 3.797693 34.137665  
2002-12-03 11:59:53 51°14.474 2°44.321 10.681972 3.797376 34.133746  
2002-12-03 11:59:58 51°14.471 2°44.294 10.760044 3.797482 34.132546  
2002-12-03 12:00:02 51°14.469 2°44.272 10.686892 3.797482 34.132546  
2002-12-03 12:00:08 51°14.465 2°44.239 10.689166 3.797693 34.13541  
2002-12-03 12:00:13 51°14.462 2°44.212 10.689166 3.797693 34.13541  
2002-12-03 12:00:18 51°14.459 2°44.184 10.729995 3.797693 34.133154  
2002-12-03 12:00:22 51°14.457 2°44.162 10.846727 3.797376 34.129235  
2002-12-03 12:00:28 51°14.454 2°44.13 10.65941 3.797692 34.130147  
2002-12-03 12:00:33 51°14.451 2°44.102 10.737787 3.797692 34.128644  
2002-12-03 12:00:38 51°14.448 2°44.075 10.853764 3.797271 34.120665  
2002-12-03 12:00:42 51°14.446 2°44.053 10.853764 3.797271 34.120665  
2002-12-03 12:00:48 51°14.444 2°44.019 10.818108 3.798009 34.125798  
2002-12-03 12:00:53 51°14.442 2°43.992 10.707078 3.797798 34.122185  
2002-12-03 12:00:58 51°14.44 2°43.964 10.785352 3.798325 34.125208  
2002-12-03 12:01:02 51°14.439 2°43.942 10.788735 3.798536 34.123562  
2002-12-03 12:01:08 51°14.436 2°43.909 10.86617 3.798641 34.122364  
2002-12-03 12:01:13 51°14.433 2°43.881 10.86617 3.798641 34.122364  
2002-12-03 12:01:18 51°14.431 2°43.854 10.79411 3.798852 34.122221  
2002-12-03 12:01:22 51°14.43 2°43.832 10.720718 3.798535 34.117554  
2002-12-03 12:01:28 51°14.427 2°43.799 10.913041 3.798746 34.117411  
2002-12-03 12:01:33 51°14.425 2°43.771 10.803099 3.799062 34.118324  
2002-12-03 12:01:38 51°14.423 2°43.743 10.843347 3.799273 34.118181  
2002-12-03 12:01:42 51°14.421 2°43.722 10.843347 3.799273 34.118181  
2002-12-03 12:01:48 51°14.418 2°43.688 10.922244 3.799484 34.117288  
2002-12-03 12:01:53 51°14.415 2°43.661 10.772931 3.799589 34.116091  
2002-12-03 12:01:58 51°14.413 2°43.633 10.891252 3.799905 34.116252  
2002-12-03 12:02:03 51°14.411 2°43.606 10.742192 3.800327 34.117468  
2002-12-03 12:02:08 51°14.409 2°43.578 10.821999 3.799484 34.107533  
2002-12-03 12:02:13 51°14.406 2°43.551 10.821999 3.799484 34.107533  
2002-12-03 12:02:18 51°14.404 2°43.523 10.863671 3.800643 34.11613  
2002-12-03 12:02:22 51°14.402 2°43.501 10.71427 3.800749 34.114933  
2002-12-03 12:02:28 51°14.4 2°43.468 10.757772 3.800748 34.111183  
2002-12-03 12:02:33 51°14.399 2°43.44 10.913688 3.801802 34.117973  
2002-12-03 12:02:38 51°14.397 2°43.412 10.764726 3.801275 34.111203  
2002-12-03 12:02:43 51°14.396 2°43.385 10.764726 3.801275 34.111203  
2002-12-03 12:02:48 51°14.394 2°43.357 10.732221 3.802329 34.117993  
2002-12-03 12:02:53 51°14.392 2°43.329 11.002109 3.802119 34.112137  
2002-12-03 12:02:58 51°14.391 2°43.301 10.857051 3.802435 34.111549  
2002-12-03 12:03:02 51°14.389 2°43.279 10.936857 3.80254 34.110354  
2002-12-03 12:03:08 51°14.387 2°43.245 10.791515 3.803172 34.112928  
2002-12-03 12:03:13 51°14.386 2°43.218 10.791515 3.803172 34.112928  
2002-12-03 12:03:18 51°14.385 2°43.19 10.872835 3.80391 34.115806  
2002-12-03 12:03:22 51°14.383 2°43.168 10.799948 3.804332 34.115523  
2002-12-03 12:03:28 51°14.382 2°43.134 10.95766 3.804332 34.113275  
2002-12-03 12:03:33 51°14.38 2°43.107 10.926314 3.804437 34.109084  
2002-12-03 12:03:38 51°14.378 2°43.079 11.007005 3.805596 34.115425  
2002-12-03 12:03:43 51°14.377 2°43.051 11.007005 3.805596 34.115425  
2002-12-03 12:03:48 51°14.375 2°43.023 10.898701 3.806018 34.114394  
2002-12-03 12:03:53 51°14.374 2°42.996 10.827047 3.806334 34.113059  
2002-12-03 12:03:58 51°14.372 2°42.968 10.870058 3.807177 34.116988  
2002-12-03 12:04:03 51°14.37 2°42.94 10.911422 3.80528 34.092805  
2002-12-03 12:04:08 51°14.369 2°42.912 10.990838 3.808758 34.122294  
2002-12-03 12:04:13 51°14.367 2°42.885 10.990838 3.808758 34.122294  
2002-12-03 12:04:18 51°14.366 2°42.857 10.845338 3.808126 34.112987  
2002-12-03 12:04:22 51°14.364 2°42.835 10.889679 3.809285 34.118574  
2002-12-03 12:04:28 51°14.362 2°42.801 10.855477 3.810023 34.121449  
2002-12-03 12:04:33 51°14.361 2°42.774 10.899441 3.809601 34.112753  
2002-12-03 12:04:38 51°14.359 2°42.746 10.940694 3.81055 34.119975  
2002-12-03 12:04:42 51°14.358 2°42.723 10.940694 3.81055 34.119975  
2002-12-03 12:04:48 51°14.357 2°42.69 11.018597 3.811288 34.122849  
2002-12-03 12:04:52 51°14.355 2°42.668 10.871122 3.811393 34.117918  
2002-12-03 12:04:58 51°14.354 2°42.634 11.18007 3.812236 34.122591  
2002-12-03 12:05:02 51°14.353 2°42.612 10.843069 3.81329 34.128619  
2002-12-03 12:05:08 51°14.351 2°42.579 10.960017 3.812131 34.11257  
2002-12-03 12:05:13 51°14.349 2°42.551 10.960017 3.812131 34.11257  
2002-12-03 12:05:18 51°14.347 2°42.523 10.928765 3.813712 34.123853  
2002-12-03 12:05:22 51°14.346 2°42.501 10.894398 3.814133 34.125067  
2002-12-03 12:05:28 51°14.344 2°42.468 10.97536 3.813711 34.117874  
2002-12-03 12:05:33 51°14.343 2°42.44 10.789893 3.815187 34.126608  
2002-12-03 12:05:38 51°14.341 2°42.412 11.172054 3.816452 34.135481  
2002-12-03 12:05:42 51°14.339 2°42.39 11.172054 3.816452 34.135481  
2002-12-03 12:05:48 51°14.337 2°42.357 10.914012 3.816557 34.133543  
2002-12-03 12:05:53 51°14.336 2°42.329 10.917481 3.81603 34.123061  
2002-12-03 12:05:58 51°14.334 2°42.302 11.037712 3.817822 34.137183  
2002-12-03 12:06:02 51°14.333 2°42.279 11.044175 3.818033 34.135549  
2002-12-03 12:06:08 51°14.331 2°42.246 11.086214 3.816662 34.11667  
2002-12-03 12:06:13 51°14.329 2°42.218 11.086214 3.816662 34.11667  
2002-12-03 12:06:18 51°14.328 2°42.19 11.018136 3.819192 34.138139  
2002-12-03 12:06:23 51°14.326 2°42.162 11.287545 3.819719 34.138909  
2002-12-03 12:06:28 51°14.325 2°42.135 11.027047 3.820141 34.138629  
2002-12-03 12:06:33 51°14.323 2°42.107 11.031249 3.820878 34.141498  
2002-12-03 12:06:38 51°14.322 2°42.079 10.99652 3.820878 34.13702  
2002-12-03 12:06:42 51°14.321 2°42.057 10.99652 3.820878 34.13702  
2002-12-03 12:06:48 51°14.319 2°42.024 11.000169 3.819824 34.121303  
2002-12-03 12:06:53 51°14.317 2°41.996 11.078694 3.822459 34.142314  
2002-12-03 12:06:58 51°14.315 2°41.968 11.123016 3.823513 34.14833  
2002-12-03 12:07:03 51°14.314 2°41.94 10.934314 3.824146 34.149402  
2002-12-03 12:07:08 51°14.313 2°41.912 11.049483 3.824778 34.151966  
2002-12-03 12:07:13 51°14.311 2°41.884 11.049483 3.824778 34.151966  
2002-12-03 12:07:18 51°14.31 2°41.856 11.05193 3.82541 34.153784  
2002-12-03 12:07:23 51°14.308 2°41.829 11.01578 3.825727 34.154693  
2002-12-03 12:07:28 51°14.306 2°41.801 11.092072 3.826359 34.15651  
2002-12-03 12:07:33 51°14.304 2°41.773 10.978641 3.826991 34.157581  
2002-12-03 12:07:38 51°14.302 2°41.745 10.977717 3.827834 34.165225  
2002-12-03 12:07:42 51°14.301 2°41.723 10.977717 3.827834 34.165225  
2002-12-03 12:07:48 51°14.299 2°41.69 11.016288 3.827518 34.159841  
2002-12-03 12:07:52 51°14.297 2°41.668 11.016796 3.828361 34.165246  
2002-12-03 12:07:58 51°14.295 2°41.634 11.130347 3.828888 34.169743  
2002-12-03 12:08:03 51°14.294 2°41.607 11.01772 3.828678 34.1669  
2002-12-03 12:08:08 51°14.292 2°41.579 10.979288 3.828572 34.165852  
2002-12-03 12:08:13 51°14.29 2°41.551 10.979288 3.828572 34.165852  
2002-12-03 12:08:18 51°14.289 2°41.523 10.903512 3.828572 34.16436  
2002-12-03 12:08:22 51°14.287 2°41.5 11.091703 3.829099 34.168857  
2002-12-03 12:08:28 51°14.285 2°41.467 11.052437 3.829205 34.169905  
2002-12-03 12:08:33 51°14.283 2°41.439 11.050222 3.829732 34.174401  
2002-12-03 12:08:38 51°14.281 2°41.411 11.046991 3.829943 34.176498  
2002-12-03 12:08:42 51°14.28 2°41.388 11.046991 3.829943 34.176498  
2002-12-03 12:08:48 51°14.277 2°41.355 10.96792 3.829626 34.173353  
2002-12-03 12:08:53 51°14.275 2°41.327 11.002618 3.829521 34.172304  
2002-12-03 12:08:58 51°14.273 2°41.299 11.076018 3.82931 34.171699  
2002-12-03 12:09:02 51°14.273 2°41.276 10.923447 3.829205 34.171397  
2002-12-03 12:09:08 51°14.272 2°41.243 10.99943 3.828678 34.167646  
2002-12-03 12:09:13 51°14.272 2°41.214 10.99943 3.828678 34.167646  
2002-12-03 12:09:18 51°14.273 2°41.186 11.038728 3.828994 34.173029  
2002-12-03 12:09:22 51°14.274 2°41.163 10.965147 3.829205 34.177365  
2002-12-03 12:09:28 51°14.275 2°41.129 11.082293 3.828151 34.169116  
2002-12-03 12:09:33 51°14.277 2°41.101 11.010977 3.828572 34.174803  
2002-12-03 12:09:38 51°14.279 2°41.073 11.167447 3.828572 34.176296  
2002-12-03 12:09:42 51°14.28 2°41.05 11.167447 3.828572 34.176296  
2002-12-03 12:09:48 51°14.282 2°41.016 11.095809 3.828889 34.17795  
2002-12-03 12:09:53 51°14.284 2°40.987 11.102358 3.828783 34.176901  
2002-12-03 12:09:58 51°14.285 2°40.959 11.070389 3.829837 34.185149  
2002-12-03 12:10:02 51°14.287 2°40.936 11.22727 3.830048 34.185754  
2002-12-03 12:10:08 51°14.289 2°40.902 10.970231 3.83068 34.18906  
2002-12-03 12:10:13 51°14.29 2°40.874 10.970231 3.83068 34.18906  
2002-12-03 12:10:18 51°14.292 2°40.846 11.503758 3.831207 34.191318  
2002-12-03 12:10:23 51°14.294 2°40.817 11.133251 3.832261 34.196579  
2002-12-03 12:10:28 51°14.296 2°40.789 11.064575 3.832683 34.196295  
2002-12-03 12:10:33 51°14.298 2°40.76 11.407791 3.833948 34.205143  
2002-12-03 12:10:38 51°14.301 2°40.732 11.113795 3.834686 34.20651  
2002-12-03 12:10:43 51°14.305 2°40.704 11.113795 3.834686 34.20651  
2002-12-03 12:10:48 51°14.308 2°40.676 11.04279 3.835318 34.207576  
2002-12-03 12:10:53 51°14.311 2°40.647 11.086583 3.836056 34.208197  
2002-12-03 12:10:58 51°14.315 2°40.619 11.277426 3.83711 34.213453  
2002-12-03 12:11:02 51°14.318 2°40.597 11.094563 3.838058 34.218406  
2002-12-03 12:11:08 51°14.324 2°40.563 11.324281 3.838796 34.219026  
2002-12-03 12:11:13 51°14.328 2°40.536 11.324281 3.838796 34.219026  
2002-12-03 12:11:18 51°14.333 2°40.508 11.064621 3.839745 34.223232  
2002-12-03 12:11:22 51°14.337 2°40.485 11.109414 3.840061 34.2219  
2002-12-03 12:11:28 51°14.342 2°40.452 11.075788 3.840904 34.225803  
2002-12-03 12:11:33 51°14.348 2°40.424 11.080124 3.841642 34.227913  
2002-12-03 12:11:38 51°14.354 2°40.396 11.049068 3.841853 34.227026  
2002-12-03 12:11:42 51°14.358 2°40.374 11.049068 3.841853 34.227026  
2002-12-03 12:11:48 51°14.365 2°40.341 11.126889 3.842696 34.230928  
2002-12-03 12:11:53 51°14.371 2°40.314 11.133758 3.843328 34.234227  
2002-12-03 12:11:58 51°14.377 2°40.286 11.176246 3.843855 34.233497  
2002-12-03 12:12:02 51°14.382 2°40.264 11.028017 3.844277 34.233957  
2002-12-03 12:12:08 51°14.391 2°40.232 11.106739 3.844804 34.234719  
2002-12-03 12:12:13 51°14.399 2°40.206 11.106739 3.844804 34.234719  
2002-12-03 12:12:18 51°14.407 2°40.179 11.077679 3.84649 34.244753  
2002-12-03 12:12:22 51°14.414 2°40.158 11.120757 3.847228 34.249096  
2002-12-03 12:12:28 51°14.423 2°40.127 11.163945 3.847123 34.24209  
2002-12-03 12:12:33 51°14.432 2°40.101 11.207059 3.847966 34.246733  
2002-12-03 12:12:38 51°14.441 2°40.075 11.25447 3.847755 34.240174  
2002-12-03 12:12:42 51°14.447 2°40.054 11.25447 3.847755 34.240174  
2002-12-03 12:12:48 51°14.458 2°40.022 11.150996 3.849441 34.253181  
2002-12-03 12:12:53 51°14.466 2°39.996 11.198125 3.849441 34.247969  
2002-12-03 12:12:58 51°14.475 2°39.969 11.09567 3.850601 34.254257  
2002-12-03 12:13:02 51°14.481 2°39.949 11.262613 3.851233 34.256062  
2002-12-03 12:13:08 51°14.493 2°39.918 11.386304 3.85176 34.255333  
2002-12-03 12:13:13 51°14.503 2°39.893 11.386304 3.85176 34.255333  
2002-12-03 12:13:18 51°14.513 2°39.867 11.295455 3.853341 34.262822  
2002-12-03 12:13:22 51°14.521 2°39.847 11.129609 3.854184 34.264483  
2002-12-03 12:13:28 51°14.533 2°39.817 11.280048 3.855133 34.264956  
2002-12-03 12:13:33 51°14.543 2°39.793 11.341515 3.856609 34.26842  
2002-12-03 12:13:38 51°14.554 2°39.768 11.367611 3.858295 34.272484  
2002-12-03 12:13:43 51°14.565 2°39.744 11.367611 3.858295 34.272484  
2002-12-03 12:13:48 51°14.576 2°39.719 11.320466 3.860403 34.280722  
2002-12-03 12:13:53 51°14.587 2°39.695 11.367198 3.861562 34.278822  
2002-12-03 12:13:58 51°14.598 2°39.671 11.35847 3.864619 34.290498  
2002-12-03 12:14:02 51°14.607 2°39.652 11.342848 3.86757 34.295184  
2002-12-03 12:14:08 51°14.621 2°39.623 11.554712 3.871259 34.303451  
2002-12-03 12:14:13 51°14.632 2°39.599 11.554712 3.871259 34.303451  
2002-12-03 12:14:18 51°14.643 2°39.574 11.689239 3.875054 34.317943  
2002-12-03 12:14:23 51°14.654 2°39.55 11.624801 3.877478 34.32038  
2002-12-03 12:14:28 51°14.665 2°39.526 11.723879 3.880008 34.328303  
2002-12-03 12:14:33 51°14.676 2°39.502 11.668209 3.882959 34.337417  
2002-12-03 12:14:38 51°14.687 2°39.478 11.645205 3.887176 34.360476  
2002-12-03 12:14:42 51°14.696 2°39.459 11.645205 3.887176 34.360476  
2002-12-03 12:14:48 51°14.709 2°39.43 11.667249 3.890021 34.364092  
2002-12-03 12:14:53 51°14.72 2°39.406 11.606588 3.892762 34.376288  
2002-12-03 12:14:58 51°14.732 2°39.382 11.63505 3.895292 34.381962  
2002-12-03 12:15:02 51°14.741 2°39.363 11.793333 3.897716 34.388815  
2002-12-03 12:15:08 51°14.754 2°39.335 11.737949 3.901616 34.405746  
2002-12-03 12:15:13 51°14.766 2°39.311 11.737949 3.901616 34.405746  
2002-12-03 12:15:18 51°14.777 2°39.288 11.793789 3.903724 34.410956  
2002-12-03 12:15:22 51°14.786 2°39.269 11.698747 3.905727 34.416606  
2002-12-03 12:15:28 51°14.799 2°39.24 11.970541 3.9091 34.432025  
2002-12-03 12:15:33 51°14.811 2°39.216 11.754483 3.910892 34.43412  
2002-12-03 12:15:38 51°14.823 2°39.192 11.824953 3.912895 34.440498  
2002-12-03 12:15:42 51°14.832 2°39.173 11.824953 3.912895 34.440498  
2002-12-03 12:15:48 51°14.846 2°39.145 11.831294 3.915425 34.446882  
2002-12-03 12:15:53 51°14.857 2°39.121 11.830883 3.917744 34.453407  
2002-12-03 12:15:58 51°14.868 2°39.097 11.75914 3.921012 34.469971  
2002-12-03 12:16:02 51°14.878 2°39.078 11.793926 3.921855 34.466441  
2002-12-03 12:16:08 51°14.891 2°39.049 11.982465 3.923752 34.476933  
2002-12-03 12:16:13 51°14.902 2°39.025 11.982465 3.923752 34.476933  
2002-12-03 12:16:18 51°14.914 2°39.002 11.753341 3.924807 34.482105  
2002-12-03 12:16:23 51°14.926 2°38.978 11.901501 3.925439 34.482406  
2002-12-03 12:16:28 51°14.938 2°38.955 11.825364 3.925755 34.482556  
2002-12-03 12:16:33 51°14.949 2°38.932 11.634043 3.925966 34.484623  
2002-12-03 12:16:38 51°14.961 2°38.908 11.816696 3.925966 34.483148  
2002-12-03 12:16:42 51°14.971 2°38.89 11.816696 3.925966 34.483148  
2002-12-03 12:16:48 51°14.986 2°38.862 11.810491 3.92565 34.480786  
2002-12-03 12:16:53 51°14.998 2°38.838 11.582372 3.925861 34.482852  
2002-12-03 12:16:58 51°15.009 2°38.815 11.727626 3.925966 34.483885  
2002-12-03 12:17:03 51°15.021 2°38.791 11.573397 3.925755 34.483294  
2002-12-03 12:17:08 51°15.033 2°38.767 11.605215 3.925123 34.480781  
2002-12-03 12:17:13 51°15.044 2°38.743 11.605215 3.925123 34.480781  
2002-12-03 12:17:18 51°15.056 2°38.72 11.825455 3.924807 34.481367  
2002-12-03 12:17:23 51°15.067 2°38.696 11.559475 3.923752 34.473984  
2002-12-03 12:17:28 51°15.079 2°38.672 11.669901 3.922909 34.470877  
2002-12-03 12:17:33 51°15.09 2°38.649 11.706105 3.922698 34.471022  
2002-12-03 12:17:38 51°15.103 2°38.626 11.590063 3.921855 34.466441  
2002-12-03 12:17:42 51°15.113 2°38.608 11.590063 3.921855 34.466441  
2002-12-03 12:17:48 51°15.129 2°38.581 11.887101 3.921328 34.465697  
2002-12-03 12:17:53 51°15.142 2°38.559 11.699752 3.921223 34.46835  
2002-12-03 12:17:58 51°15.155 2°38.536 11.808392 3.920485 34.464064  
2002-12-03 12:18:02 51°15.165 2°38.519 11.548665 3.919747 34.459777  
2002-12-03 12:18:08 51°15.18 2°38.491 11.547016 3.919325 34.457116  
2002-12-03 12:18:13 51°15.193 2°38.468 11.547016 3.919325 34.457116  
2002-12-03 12:18:18 51°15.205 2°38.445 11.623245 3.919009 34.456227  
2002-12-03 12:18:23 51°15.217 2°38.423 11.810263 3.918587 34.453566  
2002-12-03 12:18:28 51°15.229 2°38.4 11.589102 3.918376 34.453711  
2002-12-03 12:18:33 51°15.243 2°38.378 11.589651 3.918482 34.455482  
2002-12-03 12:18:38 51°15.255 2°38.355 11.703728 3.917849 34.450753  
2002-12-03 12:18:42 51°15.265 2°38.337 11.703728 3.917849 34.450753  
2002-12-03 12:18:48 51°15.28 2°38.31 11.592352 3.91806 34.453559  
2002-12-03 12:18:53 51°15.292 2°38.287 11.819433 3.917428 34.445879  
2002-12-03 12:18:58 51°15.304 2°38.265 11.708527 3.917744 34.448981  
2002-12-03 12:19:02 51°15.314 2°38.247 11.93644 3.91806 34.450609  
2002-12-03 12:19:08 51°15.328 2°38.22 11.640585 3.917849 34.447803  
2002-12-03 12:19:13 51°15.341 2°38.197 11.640585 3.917849 34.447803  
2002-12-03 12:19:18 51°15.353 2°38.174 11.567719 3.917744 34.446032  
2002-12-03 12:19:22 51°15.362 2°38.157 11.681742 3.918376 34.450023  
2002-12-03 12:19:28 51°15.377 2°38.13 11.724473 3.918165 34.445744  
2002-12-03 12:19:33 51°15.389 2°38.109 11.83882 3.918903 34.452243  
2002-12-03 12:19:38 51°15.402 2°38.087 11.839686 3.919114 34.450625  
2002-12-03 12:19:42 51°15.412 2°38.069 11.839686 3.919114 34.450625  
2002-12-03 12:19:48 51°15.427 2°38.043 11.65792 3.91943 34.452989  
2002-12-03 12:19:53 51°15.44 2°38.022 11.696461 3.920063 34.455505  
2002-12-03 12:19:58 51°15.452 2°38 11.738772 3.920168 34.454327  
2002-12-03 12:20:03 51°15.464 2°37.978 11.890792 3.920906 34.458613  
2002-12-03 12:20:08 51°15.477 2°37.956 11.706744 3.920484 34.453005  
2002-12-03 12:20:13 51°15.489 2°37.935 11.706744 3.920484 34.453005  
2002-12-03 12:20:18 51°15.501 2°37.913 11.709715 3.921539 34.461128  
2002-12-03 12:20:22 51°15.511 2°37.896 11.753113 3.921433 34.45641  
2002-12-03 12:20:28 51°15.526 2°37.87 11.792329 3.922276 34.461729  
2002-12-03 12:20:33 51°15.539 2°37.848 11.718945 3.922593 34.461881  
2002-12-03 12:20:38 51°15.551 2°37.827 11.72027 3.923436 34.467935  
2002-12-03 12:20:42 51°15.561 2°37.81 11.72027 3.923436 34.467935  
2002-12-03 12:20:48 51°15.577 2°37.784 11.760008 3.92312 34.461151  
2002-12-03 12:20:53 51°15.59 2°37.763 11.611988 3.923858 34.465436  
2002-12-03 12:20:58 51°15.602 2°37.741 11.91444 3.92449 34.469423  
2002-12-03 12:21:03 51°15.615 2°37.719 11.614597 3.925439 34.474299  
2002-12-03 12:21:08 51°15.627 2°37.697 11.616336 3.925228 34.470023  
2002-12-03 12:21:13 51°15.64 2°37.676 11.616336 3.925228 34.470023  
2002-12-03 12:21:18 51°15.652 2°37.654 11.770373 3.925544 34.473121  
2002-12-03 12:21:23 51°15.665 2°37.632 11.734432 3.925966 34.472095  
2002-12-03 12:21:28 51°15.678 2°37.61 11.700666 3.925966 34.472095  
2002-12-03 12:21:33 51°15.69 2°37.589 11.70222 3.926282 34.47372  
2002-12-03 12:21:38 51°15.703 2°37.567 11.739685 3.926598 34.476082  
2002-12-03 12:21:42 51°15.713 2°37.55 11.739685 3.926598 34.476082  
2002-12-03 12:21:48 51°15.728 2°37.524 11.74069 3.926915 34.476233  
2002-12-03 12:21:53 51°15.741 2°37.503 11.778362 3.927231 34.477857  
2002-12-03 12:21:58 51°15.754 2°37.481 11.704871 3.92702 34.472847  
2002-12-03 12:22:03 51°15.767 2°37.458 11.778088 3.927547 34.476536  
2002-12-03 12:22:08 51°15.78 2°37.436 11.704779 3.927758 34.477128  
2002-12-03 12:22:13 51°15.792 2°37.414 11.704779 3.927758 34.477128  
2002-12-03 12:22:18 51°15.805 2°37.393 11.856057 3.927758 34.475655  
2002-12-03 12:22:23 51°15.818 2°37.371 11.782014 3.927969 34.47772  
2002-12-03 12:22:28 51°15.831 2°37.349 11.820027 3.928285 34.48008  
2002-12-03 12:22:33 51°15.843 2°37.327 11.821532 3.927969 34.476247  
2002-12-03 12:22:38 51°15.856 2°37.304 11.821304 3.928285 34.478608  
2002-12-03 12:22:42 51°15.867 2°37.287 11.821304 3.928285 34.478608  
2002-12-03 12:22:48 51°15.882 2°37.26 11.672598 3.928179 34.476839  
2002-12-03 12:22:53 51°15.895 2°37.238 11.898357 3.928601 34.479495  
2002-12-03 12:22:58 51°15.908 2°37.215 12.085963 3.928707 34.479791  
2002-12-03 12:23:03 51°15.921 2°37.193 11.751971 3.928601 34.478759  
2002-12-03 12:23:08 51°15.934 2°37.171 11.715564 3.929023 34.481415  
2002-12-03 12:23:13 51°15.947 2°37.149 11.715564 3.929023 34.481415  
2002-12-03 12:23:18 51°15.96 2°37.126 11.678496 3.928812 34.478615  
2002-12-03 12:23:23 51°15.974 2°37.104 11.940037 3.928496 34.474046  
2002-12-03 12:23:28 51°15.987 2°37.082 11.751377 3.928812 34.476406  
2002-12-03 12:23:33 51°16.001 2°37.06 11.975047 3.928285 34.469774  
2002-12-03 12:23:38 51°16.014 2°37.038 11.675982 3.929023 34.47479  
2002-12-03 12:23:42 51°16.025 2°37.02 11.675982 3.929023 34.47479  
2002-12-03 12:23:48 51°16.041 2°36.994 11.748591 3.929234 34.476854  
2002-12-03 12:23:53 51°16.055 2°36.973 11.784524 3.929339 34.475678  
2002-12-03 12:23:58 51°16.069 2°36.951 11.745029 3.929023 34.471846  
2002-12-03 12:24:02 51°16.079 2°36.935 11.704368 3.928496 34.468894  
2002-12-03 12:24:08 51°16.094 2°36.912 11.961755 3.928179 34.465798  
2002-12-03 12:24:13 51°16.106 2°36.895 11.961755 3.928179 34.465798  
2002-12-03 12:24:18 51°16.116 2°36.878 11.660755 3.928601 34.472134  
2002-12-03 12:24:23 51°16.126 2°36.863 11.883136 3.927863 34.464174  
2002-12-03 12:24:27 51°16.135 2°36.851 11.620454 3.927758 34.464614  
2002-12-03 12:24:33 51°16.146 2°36.835 11.73329 3.927652 34.463582  
2002-12-03 12:24:38 51°16.156 2°36.822 11.846709 3.927125 34.461365  
2002-12-03 12:24:42 51°16.163 2°36.813 11.846709 3.927125 34.461365  
2002-12-03 12:24:48 51°16.173 2°36.799 11.923277 3.926493 34.458851  
2002-12-03 12:24:53 51°16.181 2°36.788 11.776444 3.926387 34.460027  
2002-12-03 12:24:58 51°16.188 2°36.778 11.741147 3.925228 34.449409  
2002-12-03 12:25:02 51°16.194 2°36.771 11.818795 3.925228 34.448673  
2002-12-03 12:25:08 51°16.202 2°36.76 11.708709 3.925017 34.446609  
2002-12-03 12:25:13 51°16.209 2°36.751 11.708709 3.925017 34.446609  
2002-12-03 12:25:18 51°16.215 2°36.743 11.85934 3.924806 34.444544  
2002-12-03 12:25:22 51°16.219 2°36.736 11.147448 3.925228 34.447937  
2002-12-03 12:25:28 51°16.225 2°36.727 11.673924 3.925122 34.44617  
2002-12-03 12:25:33 51°16.23 2°36.72 11.711817 3.925017 34.443666  
2002-12-03 12:25:38 51°16.234 2°36.713 11.750099 3.925544 34.44662  
2002-12-03 12:25:42 51°16.237 2°36.708 11.750099 3.925544 34.44662  
2002-12-03 12:25:48 51°16.242 2°36.701 11.600592 3.925649 34.446181  
2002-12-03 12:25:53 51°16.245 2°36.695 11.787354 3.925649 34.445445  
2002-12-03 12:25:58 51°16.248 2°36.69 11.676896 3.925544 34.443678  
2002-12-03 12:26:02 51°16.25 2°36.686 11.752199 3.925966 34.445599  
2002-12-03 12:26:08 51°16.253 2°36.681 11.716843 3.925966 34.445599  
2002-12-03 12:26:13 51°16.255 2°36.676 11.716843 3.925966 34.445599  
2002-12-03 12:26:18 51°16.257 2°36.672 11.756172 3.926176 34.446192  
2002-12-03 12:26:22 51°16.258 2°36.669 11.721504 3.926387 34.449727  
2002-12-03 12:26:28 51°16.26 2°36.665 11.686862 3.926387 34.448992  
2002-12-03 12:26:33 51°16.261 2°36.662 11.688554 3.926809 34.452384  
2002-12-03 12:26:38 51°16.263 2°36.659 11.766537 3.926809 34.451648  
2002-12-03 12:26:43 51°16.264 2°36.657 11.766537 3.926809 34.451648  
2002-12-03 12:26:48 51°16.266 2°36.654 11.806704 3.926598 34.448114  
2002-12-03 12:26:53 51°16.267 2°36.652 11.845159 3.926809 34.448706  
2002-12-03 12:26:58 51°16.268 2°36.651 11.732696 3.927441 34.451955  
2002-12-03 12:27:03 51°16.269 2°36.649 11.772016 3.927547 34.451517  
2002-12-03 12:27:08 51°16.27 2°36.648 11.810172 3.928285 34.455061  
2002-12-03 12:27:13 51°16.271 2°36.646 11.810172 3.928285 34.455061  
2002-12-03 12:27:18 51°16.271 2°36.645 11.811221 3.928074 34.451528  
2002-12-03 12:27:22 51°16.272 2°36.645 11.699112 3.92839 34.453152  
2002-12-03 12:27:28 51°16.272 2°36.644 11.886144 3.928706 34.454041  
2002-12-03 12:27:33 51°16.272 2°36.643 11.998755 3.927968 34.446086  
2002-12-03 12:27:38 51°16.273 2°36.643 11.774436 3.929128 34.455226  
2002-12-03 12:27:42 51°16.273 2°36.643 11.774436 3.929128 34.455226  
2002-12-03 12:27:48 51°16.274 2°36.643 11.774162 3.929022 34.454195  
2002-12-03 12:27:53 51°16.275 2°36.643 11.762611 3.92976 34.461415  
2002-12-03 12:27:58 51°16.275 2°36.643 11.737584 3.92955 34.457881  
2002-12-03 12:28:02 51°16.275 2°36.644 11.700529 3.930182 34.46407  
2002-12-03 12:28:08 51°16.275 2°36.644 11.850084 3.929444 34.45685  
2002-12-03 12:28:13 51°16.276 2°36.645 11.850084 3.929444 34.45685  
2002-12-03 12:28:18 51°16.276 2°36.646 11.663545 3.92955 34.457146  
2002-12-03 12:28:22 51°16.277 2°36.647 11.872105 3.929339 34.455819  
2002-12-03 12:28:28 51°16.277 2°36.648 11.664414 3.930077 34.461568  
2002-12-03 12:28:33 51°16.278 2°36.649 11.814232 3.930498 34.464958  
2002-12-03 12:28:38 51°16.278 2°36.651 11.66542 3.929971 34.460537  
2002-12-03 12:28:43 51°16.278 2°36.652 11.66542 3.929971 34.460537  
2002-12-03 12:28:47 51°16.278 2°36.653 11.777723 3.929971 34.460537  
2002-12-03 12:28:53 51°16.279 2°36.655 11.704002 3.930182 34.461864  
2002-12-03 12:28:58 51°16.279 2°36.656 11.704551 3.929866 34.456565  
2002-12-03 12:29:02 51°16.28 2°36.658 11.854552 3.929866 34.458035  
2002-12-03 12:29:08 51°16.28 2°36.66 11.855647 3.930604 34.465254  
2002-12-03 12:29:13 51°16.281 2°36.662 11.855647 3.930604 34.465254  
2002-12-03 12:29:18 51°16.281 2°36.664 11.706333 3.930498 34.462017  
2002-12-03 12:29:23 51°16.281 2°36.666 11.968857 3.93092 34.466878  
2002-12-03 12:29:28 51°16.282 2°36.668 11.707841 3.930604 34.463049  
2002-12-03 12:29:33 51°16.282 2°36.67 11.857151 3.930815 34.465111  
2002-12-03 12:29:38 51°16.283 2°36.672 12.081192 3.930815 34.463641  
2002-12-03 12:29:42 51°16.283 2°36.674 12.081192 3.930815 34.463641  
2002-12-03 12:29:48 51°16.283 2°36.676 11.783246 3.931025 34.465703  
2002-12-03 12:29:53 51°16.284 2°36.678 11.671135 3.931236 34.466295  
2002-12-03 12:29:58 51°16.284 2°36.68 11.746262 3.930709 34.46114  
2002-12-03 12:30:02 51°16.284 2°36.682 11.820437 3.931763 34.469981  
2002-12-03 12:30:08 51°16.284 2°36.684 11.933115 3.931658 34.46895  
2002-12-03 12:30:13 51°16.285 2°36.686 11.933115 3.931658 34.46895  
2002-12-03 12:30:18 51°16.285 2°36.688 11.746354 3.931447 34.467623  
2002-12-03 12:30:23 51°16.286 2°36.69 11.709258 3.931447 34.466888  
2002-12-03 12:30:28 51°16.286 2°36.692 11.78457 3.931869 34.469542  
2002-12-03 12:30:33 51°16.286 2°36.693 11.897855 3.931974 34.471308  
2002-12-03 12:30:38 51°16.287 2°36.695 11.710949 3.931236 34.463355  
2002-12-03 12:30:42 51°16.286 2°36.696 11.710949 3.931236 34.463355  
2002-12-03 12:30:48 51°16.286 2°36.697 11.63633 3.931236 34.464825  
2002-12-03 12:30:53 51°16.286 2°36.698 11.674747 3.931658 34.46748  
2002-12-03 12:30:58 51°16.285 2°36.699 11.936348 3.931552 34.465714  
2002-12-03 12:31:03 51°16.284 2°36.699 11.936485 3.931131 34.462324  
2002-12-03 12:31:08 51°16.282 2°36.7 11.787217 3.93208 34.470869  
2002-12-03 12:31:13 51°16.282 2°36.701 11.787217 3.93208 34.470869  
2002-12-03 12:31:18 51°16.281 2°36.7 11.786532 3.931342 34.463651  
2002-12-03 12:31:22 51°16.28 2°36.7 11.748089 3.932185 34.471165  
2002-12-03 12:31:28 51°16.278 2°36.7 11.672141 3.932079 34.467929  
2002-12-03 12:31:33 51°16.276 2°36.699 11.858838 3.931974 34.468368  
2002-12-03 12:31:38 51°16.275 2°36.699 11.745257 3.932079 34.468664  
2002-12-03 12:31:43 51°16.274 2°36.698 11.745257 3.932079 34.468664  
2002-12-03 12:31:47 51°16.273 2°36.697 11.744481 3.932079 34.468664  
2002-12-03 12:31:53 51°16.271 2°36.696 11.743933 3.931974 34.468368  
2002-12-03 12:31:58 51°16.27 2°36.694 11.66862 3.931869 34.468072  
2002-12-03 12:32:02 51°16.269 2°36.693 11.817974 3.931763 34.467776  
2002-12-03 12:32:08 51°16.267 2°36.691 11.780233 3.93208 34.470869  
2002-12-03 12:32:13 51°16.266 2°36.689 11.780233 3.93208 34.470869  
2002-12-03 12:32:18 51°16.265 2°36.687 11.966353 3.931447 34.466153  
2002-12-03 12:32:23 51°16.263 2°36.685 11.891202 3.931447 34.466153  
2002-12-03 12:32:28 51°16.262 2°36.683 11.704322 3.931447 34.468358  
2002-12-03 12:32:33 51°16.261 2°36.68 11.741512 3.931447 34.466153  
2002-12-03 12:32:38 51°16.26 2°36.678 11.778499 3.931447 34.467623  
2002-12-03 12:32:43 51°16.26 2°36.675 11.778499 3.931447 34.467623  
2002-12-03 12:32:48 51°16.259 2°36.673 11.853413 3.931342 34.465856  
2002-12-03 12:32:53 51°16.258 2°36.67 11.703363 3.931025 34.464233  
2002-12-03 12:32:58 51°16.257 2°36.666 11.665648 3.930709 34.46261  
2002-12-03 12:33:02 51°16.257 2°36.664 11.852774 3.931025 34.463498  
2002-12-03 12:33:08 51°16.256 2°36.66 11.815327 3.930815 34.463641  
2002-12-03 12:33:13 51°16.256 2°36.657 11.815327 3.930815 34.463641  
2002-12-03 12:33:18 51°16.255 2°36.653 11.815601 3.930498 34.460547  
2002-12-03 12:33:22 51°16.255 2°36.65 11.666517 3.931236 34.467766  
2002-12-03 12:33:28 51°16.255 2°36.646 11.816194 3.931131 34.465999  
2002-12-03 12:33:33 51°16.256 2°36.642 11.666791 3.931025 34.464968  
2002-12-03 12:33:38 51°16.256 2°36.638 11.741878 3.93092 34.463937  
2002-12-03 12:33:42 51°16.257 2°36.636 11.741878 3.93092 34.463937  
2002-12-03 12:33:48 51°16.258 2°36.631 11.75567 3.931131 34.468205  
2002-12-03 12:33:53 51°16.259 2°36.628 11.741878 3.930815 34.463641  
2002-12-03 12:33:58 51°16.26 2°36.623 11.704916 3.930393 34.459516  
2002-12-03 12:34:03 51°16.26 2°36.619 11.854279 3.930709 34.463345  
2002-12-03 12:34:08 51°16.262 2°36.615 11.817335 3.931236 34.466295  
2002-12-03 12:34:13 51°16.262 2°36.611 11.817335 3.931236 34.466295  
2002-12-03 12:34:18 51°16.264 2°36.607 11.780781 3.930393 34.459516  
2002-12-03 12:34:22 51°16.264 2°36.603 11.818704 3.930814 34.462906  
2002-12-03 12:34:28 51°16.266 2°36.598 11.856331 3.931131 34.465264  
2002-12-03 12:34:33 51°16.268 2°36.594 11.89421 3.931131 34.465264  
2002-12-03 12:34:38 51°16.27 2°36.589 11.93225 3.931025 34.465703  
2002-12-03 12:34:42 51°16.271 2°36.586 11.93225 3.931025 34.465703  
2002-12-03 12:34:48 51°16.273 2°36.581 11.745669 3.93092 34.463202  
2002-12-03 12:34:53 51°16.275 2°36.576 11.895714 3.931342 34.466592  
2002-12-03 12:34:58 51°16.278 2°36.572 11.784524 3.931131 34.464529  
2002-12-03 12:35:02 51°16.279 2°36.569 11.822171 3.931974 34.472779  
2002-12-03 12:35:08 51°16.282 2°36.564 11.711086 3.931025 34.464233  
2002-12-03 12:35:13 51°16.285 2°36.561 11.711086 3.931025 34.464233  
2002-12-03 12:35:18 51°16.287 2°36.557 12.010766 3.931342 34.465121  
2002-12-03 12:35:22 51°16.29 2°36.554 11.973863 3.931658 34.46748  
2002-12-03 12:35:28 51°16.293 2°36.549 11.787902 3.931869 34.468072  
2002-12-03 12:35:33 51°16.296 2°36.546 11.975502 3.931658 34.466745  
2002-12-03 12:35:38 51°16.299 2°36.543 11.827234 3.931974 34.468368  
2002-12-03 12:35:42 51°16.302 2°36.54 11.827234 3.931974 34.468368  
2002-12-03 12:35:48 51°16.306 2°36.537 11.828055 3.932501 34.470583  
2002-12-03 12:35:53 51°16.308 2°36.534 11.716797 3.931869 34.466602  
2002-12-03 12:35:58 51°16.312 2°36.531 11.792466 3.932185 34.468225  
2002-12-03 12:36:02 51°16.314 2°36.529 11.980372 3.932079 34.467194  
2002-12-03 12:36:08 51°16.319 2°36.526 11.719767 3.932712 34.47191  
2002-12-03 12:36:13 51°16.322 2°36.524 11.719767 3.932712 34.47191  
2002-12-03 12:36:18 51°16.325 2°36.522 11.720681 3.932396 34.470287  
2002-12-03 12:36:22 51°16.328 2°36.52 11.833757 3.93229 34.467051  
2002-12-03 12:36:28 51°16.332 2°36.518 11.759643 3.932817 34.471471  
2002-12-03 12:36:33 51°16.336 2°36.516 11.760556 3.932923 34.470297  
2002-12-03 12:36:38 51°16.34 2°36.514 11.874293 3.933134 34.472359  
2002-12-03 12:36:42 51°16.342 2°36.512 11.874293 3.933134 34.472359  
2002-12-03 12:36:48 51°16.347 2°36.51 11.912344 3.932817 34.468531  
2002-12-03 12:36:53 51°16.35 2°36.509 11.763524 3.933555 34.474277  
2002-12-03 12:36:58 51°16.354 2°36.507 11.726895 3.93345 34.473246  
2002-12-03 12:37:02 51°16.356 2°36.506 11.876754 3.933344 34.470746  
2002-12-03 12:37:08 51°16.361 2°36.504 11.653438 3.933872 34.475165  
2002-12-03 12:37:13 51°16.364 2°36.502 11.653438 3.933872 34.475165  
2002-12-03 12:37:18 51°16.368 2°36.501 11.766766 3.933661 34.471634  
2002-12-03 12:37:22 51°16.371 2°36.5 11.692896 3.933977 34.474726  
2002-12-03 12:37:28 51°16.375 2°36.498 11.88031 3.934504 34.479145  
2002-12-03 12:37:33 51°16.379 2°36.497 11.993386 3.933766 34.47193  
2002-12-03 12:37:38 51°16.383 2°36.496 11.956839 3.934504 34.477675  
2002-12-03 12:37:42 51°16.386 2°36.495 11.956839 3.934504 34.477675  
2002-12-03 12:37:48 51°16.39 2°36.494 11.73361 3.934293 34.474144  
2002-12-03 12:37:53 51°16.394 2°36.493 11.772062 3.934188 34.472379  
2002-12-03 12:37:58 51°16.398 2°36.491 11.772564 3.93482 34.477093  
2002-12-03 12:38:03 51°16.402 2°36.491 11.773203 3.934926 34.478858  
2002-12-03 12:38:08 51°16.405 2°36.49 11.998164 3.93482 34.477093  
2002-12-03 12:38:13 51°16.409 2°36.489 11.998164 3.93482 34.477093  
2002-12-03 12:38:18 51°16.413 2°36.488 11.849719 3.934715 34.474593  
2002-12-03 12:38:22 51°16.416 2°36.488 11.776033 3.935347 34.480042  
2002-12-03 12:38:28 51°16.421 2°36.487 12.001485 3.935347 34.477838  
2002-12-03 12:38:33 51°16.425 2°36.487 11.779229 3.935242 34.478276  
2002-12-03 12:38:38 51°16.429 2°36.486 11.818293 3.935558 34.480633  
2002-12-03 12:38:42 51°16.432 2°36.486 11.818293 3.935558 34.480633  
2002-12-03 12:38:48 51°16.437 2°36.485 11.93225 3.935664 34.480194  
2002-12-03 12:38:53 51°16.441 2°36.484 11.785163 3.935769 34.48049  
2002-12-03 12:38:58 51°16.445 2°36.484 11.749002 3.935663 34.477256  
2002-12-03 12:39:02 51°16.448 2°36.483 11.825729 3.936085 34.481377  
2002-12-03 12:39:08 51°16.453 2°36.482 11.865312 3.936401 34.483734  
2002-12-03 12:39:13 51°16.457 2°36.482 11.865312 3.936401 34.483734  
2002-12-03 12:39:18 51°16.46 2°36.481 11.904964 3.936612 34.483591  
2002-12-03 12:39:23 51°16.464 2°36.48 11.832617 3.936507 34.480357  
2002-12-03 12:39:28 51°16.467 2°36.48 11.94664 3.937561 34.49066  
2002-12-03 12:39:33 51°16.471 2°36.479 11.836858 3.937139 34.4836  
2002-12-03 12:39:38 51°16.475 2°36.479 11.725615 3.937561 34.486252  
2002-12-03 12:39:43 51°16.479 2°36.478 11.725615 3.937561 34.486252  
2002-12-03 12:39:48 51°16.483 2°36.478 11.801867 3.937983 34.488903  
2002-12-03 12:39:53 51°16.487 2°36.477 11.804057 3.937877 34.484935  
2002-12-03 12:39:58 51°16.491 2°36.477 11.732103 3.938615 34.489943  
2002-12-03 12:40:03 51°16.494 2°36.477 11.702083 3.939142 34.492889  
2002-12-03 12:40:08 51°16.498 2°36.476 11.717574 3.939142 34.492155  
2002-12-03 12:40:13 51°16.502 2°36.476 11.717574 3.939142 34.492155  
2002-12-03 12:40:18 51°16.506 2°36.475 11.723971 3.939458 34.49451  
2002-12-03 12:40:23 51°16.51 2°36.475 11.726712 3.939353 34.492011  
2002-12-03 12:40:28 51°16.514 2°36.475 11.729453 3.939669 34.492898  
2002-12-03 12:40:33 51°16.518 2°36.475 11.730686 3.940196 34.491439  
2002-12-03 12:40:38 51°16.522 2°36.474 11.732194 3.94104 34.492335  
2002-12-03 12:40:43 51°16.526 2°36.475 11.732194 3.94104 34.492335  
2002-12-03 12:40:48 51°16.531 2°36.474 11.734798 3.941988 34.492792  
2002-12-03 12:40:53 51°16.535 2°36.475 11.736945 3.942726 34.49266  
2002-12-03 12:40:58 51°16.539 2°36.475 11.738817 3.943359 34.495166  
2002-12-03 12:41:02 51°16.542 2°36.475 11.73932 3.943359 34.493699  
2002-12-03 12:41:08 51°16.547 2°36.476 11.739914 3.943675 34.494585  
2002-12-03 12:41:13 51°16.551 2°36.476 11.739914 3.943675 34.494585  
2002-12-03 12:41:18 51°16.555 2°36.477 11.740644 3.942831 34.484888  
2002-12-03 12:41:22 51°16.559 2°36.477 11.742243 3.943464 34.487394  
2002-12-03 12:41:28 51°16.563 2°36.478 11.742928 3.943148 34.482109  
2002-12-03 12:41:33 51°16.568 2°36.479 11.742882 3.94378 34.487548  
2002-12-03 12:41:38 51°16.572 2°36.48 11.744755 3.94378 34.484615  
2002-12-03 12:41:42 51°16.575 2°36.481 11.744755 3.94378 34.484615  
2002-12-03 12:41:48 51°16.581 2°36.482 11.746354 3.943886 34.485644  
2002-12-03 12:41:53 51°16.585 2°36.484 11.748363 3.944518 34.488883  
2002-12-03 12:41:58 51°16.59 2°36.485 11.749596 3.944623 34.489912  
2002-12-03 12:42:02 51°16.593 2°36.486 11.750373 3.944623 34.487713  
2002-12-03 12:42:06 51°16.597 2°36.488 11.75156 3.944729 34.490207  
2002-12-03 12:42:13 51°16.603 2°36.49 11.75156 3.944729 34.490207  
2002-12-03 12:42:18 51°16.608 2°36.492 11.753798 3.945045 34.491093  
2002-12-03 12:42:22 51°16.611 2°36.494 11.755533 3.94494 34.490065  
2002-12-03 12:42:28 51°16.616 2°36.496 11.757405 3.945256 34.490218  
2002-12-03 12:42:33 51°16.62 2°36.499 11.795934 3.945678 34.492866  
2002-12-03 12:42:38 51°16.625 2°36.501 11.759643 3.945572 34.491838  
2002-12-03 12:42:42 51°16.628 2°36.503 11.759643 3.945572 34.491838  
2002-12-03 12:42:48 51°16.633 2°36.506 11.759506 3.945572 34.491105  
2002-12-03 12:42:53 51°16.638 2°36.509 11.759277 3.945888 34.491258  
2002-12-03 12:42:58 51°16.642 2°36.512 11.759688 3.946521 34.495962  
2002-12-03 12:43:02 51°16.645 2°36.514 11.76115 3.94631 34.493173  
2002-12-03 12:43:08 51°16.65 2°36.518 11.799631 3.946732 34.49582  
2002-12-03 12:43:13 51°16.655 2°36.521 11.799631 3.946732 34.49582  
2002-12-03 12:43:18 51°16.659 2°36.524 11.76325 3.947153 34.4992  
2002-12-03 12:43:22 51°16.662 2°36.526 11.764391 3.947364 34.500523